sensor_id;sensor_type;location;lat;lon;timestamp;P1;durP1;ratioP1;P2;durP2;ratioP2
15198;SDS011;7700;48.654;9.070;2023-06-24T00:02:14;7.00;;;6.43;;
15198;SDS011;7700;48.654;9.070;2023-06-24T00:04:40;6.70;;;6.00;;
15198;SDS011;7700;48.654;9.070;2023-06-24T00:07:06;7.03;;;6.43;;
15198;SDS011;7700;48.654;9.070;2023-06-24T00:09:32;6.63;;;6.13;;
15198;SDS011;7700;48.654;9.070;2023-06-24T00:11:58;7.13;;;6.47;;
15198;SDS011;7700;48.654;9.070;2023-06-24T00:14:25;7.07;;;6.38;;
15198;SDS011;7700;48.654;9.070;2023-06-24T00:16:51;7.53;;;6.82;;
15198;SDS011;7700;48.654;9.070;2023-06-24T00:19:21;6.65;;;6.15;;
15198;SDS011;7700;48.654;9.070;2023-06-24T00:21:48;7.47;;;6.78;;
15198;SDS011;7700;48.654;9.070;2023-06-24T00:24:16;6.70;;;6.05;;
15198;SDS011;7700;48.654;9.070;2023-06-24T00:26:42;6.97;;;6.38;;
15198;SDS011;7700;48.654;9.070;2023-06-24T00:29:08;7.50;;;6.75;;
15198;SDS011;7700;48.654;9.070;2023-06-24T00:31:34;7.60;;;6.88;;
15198;SDS011;7700;48.654;9.070;2023-06-24T00:34:00;6.85;;;6.25;;
15198;SDS011;7700;48.654;9.070;2023-06-24T00:36:26;7.03;;;6.32;;
15198;SDS011;7700;48.654;9.070;2023-06-24T00:38:52;6.53;;;5.93;;
15198;SDS011;7700;48.654;9.070;2023-06-24T00:41:18;7.57;;;6.90;;
15198;SDS011;7700;48.654;9.070;2023-06-24T00:43:45;7.55;;;6.95;;
15198;SDS011;7700;48.654;9.070;2023-06-24T00:46:11;7.43;;;6.82;;
15198;SDS011;7700;48.654;9.070;2023-06-24T00:48:40;7.78;;;7.07;;
15198;SDS011;7700;48.654;9.070;2023-06-24T00:51:06;7.63;;;6.88;;
15198;SDS011;7700;48.654;9.070;2023-06-24T00:53:32;6.90;;;6.30;;
15198;SDS011;7700;48.654;9.070;2023-06-24T00:55:58;6.60;;;6.10;;
15198;SDS011;7700;48.654;9.070;2023-06-24T00:58:28;6.45;;;5.90;;
15198;SDS011;7700;48.654;9.070;2023-06-24T01:00:55;6.15;;;5.63;;
15198;SDS011;7700;48.654;9.070;2023-06-24T01:03:23;6.38;;;5.78;;
15198;SDS011;7700;48.654;9.070;2023-06-24T01:05:50;6.57;;;6.00;;
15198;SDS011;7700;48.654;9.070;2023-06-24T01:08:17;6.00;;;5.50;;
15198;SDS011;7700;48.654;9.070;2023-06-24T01:10:44;6.55;;;5.95;;
15198;SDS011;7700;48.654;9.070;2023-06-24T01:13:10;5.80;;;5.32;;
15198;SDS011;7700;48.654;9.070;2023-06-24T01:15:36;5.50;;;5.10;;
15198;SDS011;7700;48.654;9.070;2023-06-24T01:26:07;5.95;;;5.45;;
15198;SDS011;7700;48.654;9.070;2023-06-24T01:28:52;6.07;;;5.63;;
15198;SDS011;7700;48.654;9.070;2023-06-24T01:31:27;6.10;;;5.50;;
15198;SDS011;7700;48.654;9.070;2023-06-24T01:34:01;6.05;;;5.45;;
15198;SDS011;7700;48.654;9.070;2023-06-24T01:36:29;5.40;;;4.90;;
15198;SDS011;7700;48.654;9.070;2023-06-24T01:38:58;5.80;;;5.35;;
15198;SDS011;7700;48.654;9.070;2023-06-24T01:41:26;6.47;;;5.88;;
15198;SDS011;7700;48.654;9.070;2023-06-24T01:43:55;6.95;;;6.30;;
15198;SDS011;7700;48.654;9.070;2023-06-24T01:46:22;6.82;;;6.22;;
15198;SDS011;7700;48.654;9.070;2023-06-24T01:48:48;8.07;;;6.57;;
15198;SDS011;7700;48.654;9.070;2023-06-24T01:51:19;8.38;;;6.82;;
15198;SDS011;7700;48.654;9.070;2023-06-24T01:53:50;6.88;;;5.97;;
15198;SDS011;7700;48.654;9.070;2023-06-24T01:56:17;6.30;;;5.63;;
15198;SDS011;7700;48.654;9.070;2023-06-24T01:58:44;7.13;;;6.47;;
15198;SDS011;7700;48.654;9.070;2023-06-24T02:01:12;6.93;;;5.80;;
15198;SDS011;7700;48.654;9.070;2023-06-24T02:03:38;6.07;;;5.57;;
15198;SDS011;7700;48.654;9.070;2023-06-24T02:06:05;7.57;;;6.65;;
15198;SDS011;7700;48.654;9.070;2023-06-24T02:08:33;6.40;;;5.80;;
15198;SDS011;7700;48.654;9.070;2023-06-24T02:10:59;6.70;;;5.80;;
15198;SDS011;7700;48.654;9.070;2023-06-24T02:13:26;6.22;;;5.72;;
15198;SDS011;7700;48.654;9.070;2023-06-24T02:15:52;5.70;;;5.20;;
15198;SDS011;7700;48.654;9.070;2023-06-24T02:18:18;6.05;;;5.55;;
15198;SDS011;7700;48.654;9.070;2023-06-24T02:20:45;6.22;;;5.72;;
15198;SDS011;7700;48.654;9.070;2023-06-24T02:23:11;5.90;;;5.35;;
15198;SDS011;7700;48.654;9.070;2023-06-24T02:25:38;6.55;;;6.03;;
15198;SDS011;7700;48.654;9.070;2023-06-24T02:28:05;7.38;;;6.10;;
15198;SDS011;7700;48.654;9.070;2023-06-24T02:30:31;6.63;;;6.03;;
15198;SDS011;7700;48.654;9.070;2023-06-24T02:32:58;6.72;;;6.07;;
15198;SDS011;7700;48.654;9.070;2023-06-24T02:35:24;6.60;;;5.88;;
15198;SDS011;7700;48.654;9.070;2023-06-24T02:37:50;6.05;;;5.55;;
15198;SDS011;7700;48.654;9.070;2023-06-24T02:40:16;6.03;;;5.53;;
15198;SDS011;7700;48.654;9.070;2023-06-24T02:42:42;5.45;;;5.05;;
15198;SDS011;7700;48.654;9.070;2023-06-24T02:45:08;6.05;;;5.55;;
15198;SDS011;7700;48.654;9.070;2023-06-24T02:47:34;6.63;;;5.93;;
15198;SDS011;7700;48.654;9.070;2023-06-24T02:50:02;6.57;;;6.07;;
15198;SDS011;7700;48.654;9.070;2023-06-24T02:52:29;6.80;;;6.30;;
15198;SDS011;7700;48.654;9.070;2023-06-24T02:54:56;8.52;;;7.05;;
15198;SDS011;7700;48.654;9.070;2023-06-24T02:57:23;8.40;;;7.68;;
15198;SDS011;7700;48.654;9.070;2023-06-24T02:59:50;6.80;;;6.20;;
15198;SDS011;7700;48.654;9.070;2023-06-24T03:02:16;7.63;;;6.18;;
15198;SDS011;7700;48.654;9.070;2023-06-24T03:04:43;6.70;;;6.10;;
15198;SDS011;7700;48.654;9.070;2023-06-24T03:07:09;7.18;;;6.57;;
15198;SDS011;7700;48.654;9.070;2023-06-24T03:09:36;7.15;;;6.50;;
15198;SDS011;7700;48.654;9.070;2023-06-24T03:12:02;7.65;;;6.95;;
15198;SDS011;7700;48.654;9.070;2023-06-24T03:14:28;7.45;;;6.85;;
15198;SDS011;7700;48.654;9.070;2023-06-24T03:16:54;6.80;;;6.20;;
15198;SDS011;7700;48.654;9.070;2023-06-24T03:19:20;6.70;;;6.10;;
15198;SDS011;7700;48.654;9.070;2023-06-24T03:21:46;6.93;;;6.32;;
15198;SDS011;7700;48.654;9.070;2023-06-24T03:24:12;6.82;;;6.22;;
15198;SDS011;7700;48.654;9.070;2023-06-24T03:26:39;7.03;;;6.43;;
15198;SDS011;7700;48.654;9.070;2023-06-24T03:29:05;6.88;;;6.15;;
15198;SDS011;7700;48.654;9.070;2023-06-24T03:31:34;6.95;;;6.22;;
15198;SDS011;7700;48.654;9.070;2023-06-24T03:34:00;7.30;;;6.70;;
15198;SDS011;7700;48.654;9.070;2023-06-24T03:36:26;6.07;;;5.55;;
15198;SDS011;7700;48.654;9.070;2023-06-24T03:38:52;6.53;;;5.93;;
15198;SDS011;7700;48.654;9.070;2023-06-24T03:41:18;7.13;;;6.53;;
15198;SDS011;7700;48.654;9.070;2023-06-24T03:43:44;7.05;;;6.45;;
15198;SDS011;7700;48.654;9.070;2023-06-24T03:46:10;7.85;;;7.10;;
15198;SDS011;7700;48.654;9.070;2023-06-24T03:48:36;7.65;;;7.03;;
15198;SDS011;7700;48.654;9.070;2023-06-24T03:51:02;7.80;;;7.03;;
15198;SDS011;7700;48.654;9.070;2023-06-24T03:53:28;7.93;;;7.15;;
15198;SDS011;7700;48.654;9.070;2023-06-24T03:55:54;7.80;;;6.95;;
15198;SDS011;7700;48.654;9.070;2023-06-24T03:58:20;6.88;;;6.30;;
15198;SDS011;7700;48.654;9.070;2023-06-24T04:00:46;7.03;;;6.43;;
15198;SDS011;7700;48.654;9.070;2023-06-24T04:03:14;7.00;;;6.30;;
15198;SDS011;7700;48.654;9.070;2023-06-24T04:05:44;7.25;;;6.65;;
15198;SDS011;7700;48.654;9.070;2023-06-24T04:08:10;6.80;;;6.20;;
15198;SDS011;7700;48.654;9.070;2023-06-24T04:10:36;6.90;;;6.20;;
15198;SDS011;7700;48.654;9.070;2023-06-24T04:13:02;7.20;;;6.28;;
15198;SDS011;7700;48.654;9.070;2023-06-24T04:15:28;7.15;;;6.32;;
15198;SDS011;7700;48.654;9.070;2023-06-24T04:17:54;11.50;;;7.10;;
15198;SDS011;7700;48.654;9.070;2023-06-24T04:20:20;6.75;;;6.15;;
15198;SDS011;7700;48.654;9.070;2023-06-24T04:22:45;7.15;;;6.55;;
15198;SDS011;7700;48.654;9.070;2023-06-24T04:25:11;6.70;;;6.10;;
15198;SDS011;7700;48.654;9.070;2023-06-24T04:27:37;8.63;;;6.63;;
15198;SDS011;7700;48.654;9.070;2023-06-24T04:30:04;6.85;;;6.25;;
15198;SDS011;7700;48.654;9.070;2023-06-24T04:32:31;7.03;;;6.32;;
15198;SDS011;7700;48.654;9.070;2023-06-24T04:34:58;6.57;;;5.97;;
15198;SDS011;7700;48.654;9.070;2023-06-24T04:37:25;6.80;;;6.10;;
15198;SDS011;7700;48.654;9.070;2023-06-24T04:39:51;9.18;;;6.63;;
15198;SDS011;7700;48.654;9.070;2023-06-24T04:42:17;9.82;;;6.68;;
15198;SDS011;7700;48.654;9.070;2023-06-24T04:44:43;8.63;;;7.13;;
15198;SDS011;7700;48.654;9.070;2023-06-24T04:47:09;6.55;;;6.05;;
15198;SDS011;7700;48.654;9.070;2023-06-24T04:49:38;6.07;;;5.57;;
15198;SDS011;7700;48.654;9.070;2023-06-24T04:52:05;7.88;;;6.18;;
15198;SDS011;7700;48.654;9.070;2023-06-24T04:54:31;7.45;;;6.38;;
15198;SDS011;7700;48.654;9.070;2023-06-24T04:56:57;6.95;;;5.80;;
15198;SDS011;7700;48.654;9.070;2023-06-24T04:59:23;7.18;;;6.57;;
15198;SDS011;7700;48.654;9.070;2023-06-24T05:01:49;7.65;;;6.28;;
15198;SDS011;7700;48.654;9.070;2023-06-24T05:04:15;8.27;;;6.20;;
15198;SDS011;7700;48.654;9.070;2023-06-24T05:06:41;7.63;;;6.93;;
15198;SDS011;7700;48.654;9.070;2023-06-24T05:09:07;7.85;;;7.15;;
15198;SDS011;7700;48.654;9.070;2023-06-24T05:11:33;7.53;;;6.93;;
15198;SDS011;7700;48.654;9.070;2023-06-24T05:13:59;7.30;;;6.63;;
15198;SDS011;7700;48.654;9.070;2023-06-24T05:16:25;8.57;;;6.95;;
15198;SDS011;7700;48.654;9.070;2023-06-24T05:18:51;7.75;;;6.63;;
15198;SDS011;7700;48.654;9.070;2023-06-24T05:21:17;7.25;;;6.57;;
15198;SDS011;7700;48.654;9.070;2023-06-24T05:23:43;8.55;;;6.10;;
15198;SDS011;7700;48.654;9.070;2023-06-24T05:26:09;8.32;;;6.53;;
15198;SDS011;7700;48.654;9.070;2023-06-24T05:28:36;7.03;;;6.32;;
15198;SDS011;7700;48.654;9.070;2023-06-24T05:31:02;6.55;;;6.05;;
15198;SDS011;7700;48.654;9.070;2023-06-24T05:33:28;6.95;;;6.22;;
15198;SDS011;7700;48.654;9.070;2023-06-24T05:35:55;7.47;;;6.65;;
15198;SDS011;7700;48.654;9.070;2023-06-24T05:38:21;8.20;;;6.85;;
15198;SDS011;7700;48.654;9.070;2023-06-24T05:40:47;7.38;;;6.78;;
15198;SDS011;7700;48.654;9.070;2023-06-24T05:43:13;7.40;;;6.70;;
15198;SDS011;7700;48.654;9.070;2023-06-24T05:45:39;7.10;;;6.45;;
15198;SDS011;7700;48.654;9.070;2023-06-24T05:48:05;6.53;;;6.00;;
15198;SDS011;7700;48.654;9.070;2023-06-24T05:50:31;7.55;;;6.28;;
15198;SDS011;7700;48.654;9.070;2023-06-24T05:52:58;9.55;;;7.10;;
15198;SDS011;7700;48.654;9.070;2023-06-24T05:55:24;8.23;;;7.47;;
15198;SDS011;7700;48.654;9.070;2023-06-24T05:57:50;6.97;;;6.38;;
15198;SDS011;7700;48.654;9.070;2023-06-24T06:00:17;6.78;;;6.18;;
15198;SDS011;7700;48.654;9.070;2023-06-24T06:02:43;6.55;;;5.95;;
15198;SDS011;7700;48.654;9.070;2023-06-24T06:05:09;7.22;;;6.53;;
15198;SDS011;7700;48.654;9.070;2023-06-24T06:07:35;7.47;;;6.13;;
15198;SDS011;7700;48.654;9.070;2023-06-24T06:10:04;6.78;;;6.10;;
15198;SDS011;7700;48.654;9.070;2023-06-24T06:12:30;7.20;;;6.50;;
15198;SDS011;7700;48.654;9.070;2023-06-24T06:14:56;6.68;;;6.18;;
15198;SDS011;7700;48.654;9.070;2023-06-24T06:17:23;6.38;;;5.85;;
15198;SDS011;7700;48.654;9.070;2023-06-24T06:19:49;6.40;;;5.90;;
15198;SDS011;7700;48.654;9.070;2023-06-24T06:22:15;6.43;;;5.82;;
15198;SDS011;7700;48.654;9.070;2023-06-24T06:24:41;6.97;;;6.20;;
15198;SDS011;7700;48.654;9.070;2023-06-24T06:27:10;5.72;;;5.20;;
15198;SDS011;7700;48.654;9.070;2023-06-24T06:29:36;6.00;;;5.50;;
15198;SDS011;7700;48.654;9.070;2023-06-24T06:32:02;6.75;;;6.10;;
15198;SDS011;7700;48.654;9.070;2023-06-24T06:34:29;6.15;;;5.65;;
15198;SDS011;7700;48.654;9.070;2023-06-24T06:36:54;5.60;;;5.18;;
15198;SDS011;7700;48.654;9.070;2023-06-24T06:39:21;5.75;;;5.20;;
15198;SDS011;7700;48.654;9.070;2023-06-24T06:41:47;5.18;;;4.78;;
15198;SDS011;7700;48.654;9.070;2023-06-24T06:44:13;4.95;;;4.55;;
15198;SDS011;7700;48.654;9.070;2023-06-24T06:46:39;5.45;;;5.05;;
15198;SDS011;7700;48.654;9.070;2023-06-24T06:49:06;5.13;;;4.63;;
15198;SDS011;7700;48.654;9.070;2023-06-24T06:51:32;5.85;;;5.00;;
15198;SDS011;7700;48.654;9.070;2023-06-24T06:54:00;4.97;;;4.57;;
15198;SDS011;7700;48.654;9.070;2023-06-24T06:56:26;5.32;;;4.82;;
15198;SDS011;7700;48.654;9.070;2023-06-24T06:58:52;5.00;;;4.50;;
15198;SDS011;7700;48.654;9.070;2023-06-24T07:01:18;4.75;;;4.35;;
15198;SDS011;7700;48.654;9.070;2023-06-24T07:03:44;4.45;;;4.07;;
15198;SDS011;7700;48.654;9.070;2023-06-24T07:06:10;4.88;;;4.57;;
15198;SDS011;7700;48.654;9.070;2023-06-24T07:08:36;4.45;;;4.15;;
15198;SDS011;7700;48.654;9.070;2023-06-24T07:11:02;4.75;;;4.25;;
15198;SDS011;7700;48.654;9.070;2023-06-24T07:13:28;4.50;;;4.20;;
15198;SDS011;7700;48.654;9.070;2023-06-24T07:15:54;4.50;;;4.10;;
15198;SDS011;7700;48.654;9.070;2023-06-24T07:18:20;4.18;;;3.88;;
15198;SDS011;7700;48.654;9.070;2023-06-24T07:20:46;4.43;;;3.67;;
15198;SDS011;7700;48.654;9.070;2023-06-24T07:23:13;3.53;;;3.33;;
15198;SDS011;7700;48.654;9.070;2023-06-24T07:25:39;3.60;;;3.30;;
15198;SDS011;7700;48.654;9.070;2023-06-24T07:28:05;3.90;;;3.60;;
15198;SDS011;7700;48.654;9.070;2023-06-24T07:30:31;3.53;;;3.10;;
15198;SDS011;7700;48.654;9.070;2023-06-24T07:32:57;3.50;;;3.20;;
15198;SDS011;7700;48.654;9.070;2023-06-24T07:35:23;3.75;;;3.45;;
15198;SDS011;7700;48.654;9.070;2023-06-24T07:37:49;3.78;;;3.35;;
15198;SDS011;7700;48.654;9.070;2023-06-24T07:40:16;3.15;;;2.95;;
15198;SDS011;7700;48.654;9.070;2023-06-24T07:42:42;3.67;;;3.40;;
15198;SDS011;7700;48.654;9.070;2023-06-24T07:45:08;4.22;;;3.05;;
15198;SDS011;7700;48.654;9.070;2023-06-24T07:47:34;2.95;;;2.75;;
15198;SDS011;7700;48.654;9.070;2023-06-24T07:50:00;3.50;;;3.20;;
15198;SDS011;7700;48.654;9.070;2023-06-24T07:52:26;3.53;;;3.00;;
15198;SDS011;7700;48.654;9.070;2023-06-24T07:54:52;3.22;;;3.03;;
15198;SDS011;7700;48.654;9.070;2023-06-24T07:57:18;2.90;;;2.70;;
15198;SDS011;7700;48.654;9.070;2023-06-24T07:59:44;3.40;;;3.10;;
15198;SDS011;7700;48.654;9.070;2023-06-24T08:02:10;3.05;;;2.85;;
15198;SDS011;7700;48.654;9.070;2023-06-24T08:04:36;3.60;;;3.30;;
15198;SDS011;7700;48.654;9.070;2023-06-24T08:07:03;3.75;;;3.45;;
15198;SDS011;7700;48.654;9.070;2023-06-24T08:09:29;3.88;;;3.53;;
15198;SDS011;7700;48.654;9.070;2023-06-24T08:11:55;3.40;;;3.10;;
15198;SDS011;7700;48.654;9.070;2023-06-24T08:14:21;3.58;;;3.28;;
15198;SDS011;7700;48.654;9.070;2023-06-24T08:16:47;3.50;;;3.20;;
15198;SDS011;7700;48.654;9.070;2023-06-24T08:19:13;3.40;;;3.10;;
15198;SDS011;7700;48.654;9.070;2023-06-24T08:21:39;3.30;;;3.00;;
15198;SDS011;7700;48.654;9.070;2023-06-24T08:24:06;3.35;;;3.05;;
15198;SDS011;7700;48.654;9.070;2023-06-24T08:26:32;3.38;;;3.10;;
15198;SDS011;7700;48.654;9.070;2023-06-24T08:28:58;3.80;;;3.22;;
15198;SDS011;7700;48.654;9.070;2023-06-24T08:31:25;3.50;;;3.15;;
15198;SDS011;7700;48.654;9.070;2023-06-24T08:33:54;3.58;;;3.28;;
15198;SDS011;7700;48.654;9.070;2023-06-24T08:36:25;3.50;;;2.92;;
15198;SDS011;7700;48.654;9.070;2023-06-24T08:38:51;3.38;;;3.08;;
15198;SDS011;7700;48.654;9.070;2023-06-24T08:41:17;3.28;;;3.08;;
15198;SDS011;7700;48.654;9.070;2023-06-24T08:43:43;13.45;;;4.13;;
15198;SDS011;7700;48.654;9.070;2023-06-24T08:46:09;3.50;;;2.85;;
15198;SDS011;7700;48.654;9.070;2023-06-24T08:48:36;3.42;;;3.10;;
15198;SDS011;7700;48.654;9.070;2023-06-24T08:51:08;3.38;;;3.15;;
15198;SDS011;7700;48.654;9.070;2023-06-24T08:53:36;3.80;;;3.50;;
15198;SDS011;7700;48.654;9.070;2023-06-24T08:56:03;3.45;;;3.03;;
15198;SDS011;7700;48.654;9.070;2023-06-24T08:58:30;3.28;;;2.95;;
15198;SDS011;7700;48.654;9.070;2023-06-24T09:00:56;4.72;;;3.20;;
15198;SDS011;7700;48.654;9.070;2023-06-24T09:03:22;3.50;;;3.00;;
15198;SDS011;7700;48.654;9.070;2023-06-24T09:05:48;3.42;;;2.95;;
15198;SDS011;7700;48.654;9.070;2023-06-24T09:08:14;2.90;;;2.70;;
15198;SDS011;7700;48.654;9.070;2023-06-24T09:10:43;3.10;;;2.90;;
15198;SDS011;7700;48.654;9.070;2023-06-24T09:13:10;27.80;;;8.10;;
15198;SDS011;7700;48.654;9.070;2023-06-24T09:15:37;13.98;;;13.25;;
15198;SDS011;7700;48.654;9.070;2023-06-24T09:18:03;14.52;;;13.65;;
15198;SDS011;7700;48.654;9.070;2023-06-24T09:20:30;7.65;;;7.18;;
15198;SDS011;7700;48.654;9.070;2023-06-24T09:22:59;22.63;;;21.35;;
15198;SDS011;7700;48.654;9.070;2023-06-24T09:25:26;17.05;;;15.80;;
15198;SDS011;7700;48.654;9.070;2023-06-24T09:27:52;20.52;;;19.15;;
15198;SDS011;7700;48.654;9.070;2023-06-24T09:30:19;28.77;;;26.92;;
15198;SDS011;7700;48.654;9.070;2023-06-24T09:32:47;34.22;;;32.38;;
15198;SDS011;7700;48.654;9.070;2023-06-24T09:35:13;29.75;;;26.85;;
15198;SDS011;7700;48.654;9.070;2023-06-24T09:37:39;45.88;;;42.00;;
15198;SDS011;7700;48.654;9.070;2023-06-24T09:40:05;73.20;;;67.53;;
15198;SDS011;7700;48.654;9.070;2023-06-24T09:42:34;56.25;;;51.97;;
15198;SDS011;7700;48.654;9.070;2023-06-24T09:45:03;48.90;;;45.28;;
15198;SDS011;7700;48.654;9.070;2023-06-24T09:47:29;58.10;;;53.70;;
15198;SDS011;7700;48.654;9.070;2023-06-24T09:49:55;68.15;;;62.63;;
15198;SDS011;7700;48.654;9.070;2023-06-24T09:52:21;48.38;;;43.88;;
15198;SDS011;7700;48.654;9.070;2023-06-24T09:54:49;44.50;;;40.17;;
15198;SDS011;7700;48.654;9.070;2023-06-24T09:57:16;57.17;;;52.47;;
15198;SDS011;7700;48.654;9.070;2023-06-24T09:59:44;51.58;;;47.45;;
15198;SDS011;7700;48.654;9.070;2023-06-24T10:03:31;73.18;;;67.18;;
15198;SDS011;7700;48.654;9.070;2023-06-24T10:05:58;48.20;;;44.88;;
15198;SDS011;7700;48.654;9.070;2023-06-24T10:08:24;70.32;;;63.63;;
15198;SDS011;7700;48.654;9.070;2023-06-24T10:10:50;68.10;;;60.88;;
15198;SDS011;7700;48.654;9.070;2023-06-24T10:13:16;71.68;;;65.68;;
15198;SDS011;7700;48.654;9.070;2023-06-24T10:15:42;78.15;;;70.43;;
15198;SDS011;7700;48.654;9.070;2023-06-24T10:21:09;65.65;;;60.38;;
15198;SDS011;7700;48.654;9.070;2023-06-24T10:23:39;56.85;;;52.72;;
15198;SDS011;7700;48.654;9.070;2023-06-24T10:26:09;66.93;;;62.00;;
15198;SDS011;7700;48.654;9.070;2023-06-24T10:29:09;133.07;;;100.32;;
15198;SDS011;7700;48.654;9.070;2023-06-24T10:39:45;127.35;;;103.40;;
15198;SDS011;7700;48.654;9.070;2023-06-24T10:45:01;102.20;;;92.85;;
15198;SDS011;7700;48.654;9.070;2023-06-24T10:47:28;68.22;;;60.75;;
15198;SDS011;7700;48.654;9.070;2023-06-24T10:49:54;79.88;;;73.60;;
15198;SDS011;7700;48.654;9.070;2023-06-24T10:52:20;63.25;;;58.53;;
15198;SDS011;7700;48.654;9.070;2023-06-24T10:54:47;67.80;;;61.00;;
15198;SDS011;7700;48.654;9.070;2023-06-24T10:57:13;66.60;;;60.05;;
15198;SDS011;7700;48.654;9.070;2023-06-24T10:59:42;57.65;;;52.15;;
15198;SDS011;7700;48.654;9.070;2023-06-24T11:02:09;83.07;;;74.90;;
15198;SDS011;7700;48.654;9.070;2023-06-24T11:07:10;92.60;;;82.72;;
15198;SDS011;7700;48.654;9.070;2023-06-24T11:09:36;53.05;;;49.28;;
15198;SDS011;7700;48.654;9.070;2023-06-24T11:12:02;63.08;;;57.60;;
15198;SDS011;7700;48.654;9.070;2023-06-24T11:14:28;138.55;;;124.25;;
15198;SDS011;7700;48.654;9.070;2023-06-24T11:16:54;121.88;;;98.70;;
15198;SDS011;7700;48.654;9.070;2023-06-24T11:19:20;70.70;;;62.33;;
15198;SDS011;7700;48.654;9.070;2023-06-24T11:21:46;81.60;;;64.72;;
15198;SDS011;7700;48.654;9.070;2023-06-24T11:24:12;75.38;;;67.85;;
15198;SDS011;7700;48.654;9.070;2023-06-24T11:26:38;55.33;;;50.58;;
15198;SDS011;7700;48.654;9.070;2023-06-24T11:29:11;68.70;;;63.65;;
15198;SDS011;7700;48.654;9.070;2023-06-24T11:31:36;67.55;;;61.50;;
15198;SDS011;7700;48.654;9.070;2023-06-24T11:34:03;74.93;;;67.05;;
15198;SDS011;7700;48.654;9.070;2023-06-24T11:36:30;101.07;;;60.85;;
15198;SDS011;7700;48.654;9.070;2023-06-24T11:38:57;45.50;;;41.50;;
15198;SDS011;7700;48.654;9.070;2023-06-24T11:41:22;72.90;;;65.57;;
15198;SDS011;7700;48.654;9.070;2023-06-24T11:43:50;56.08;;;51.03;;
15198;SDS011;7700;48.654;9.070;2023-06-24T11:46:20;64.20;;;58.95;;
15198;SDS011;7700;48.654;9.070;2023-06-24T11:48:46;58.28;;;54.63;;
15198;SDS011;7700;48.654;9.070;2023-06-24T11:51:12;51.45;;;47.17;;
15198;SDS011;7700;48.654;9.070;2023-06-24T11:53:45;50.60;;;47.03;;
15198;SDS011;7700;48.654;9.070;2023-06-24T11:56:12;124.57;;;100.07;;
15198;SDS011;7700;48.654;9.070;2023-06-24T11:58:38;74.18;;;66.65;;
15198;SDS011;7700;48.654;9.070;2023-06-24T12:01:07;202.05;;;146.63;;
15198;SDS011;7700;48.654;9.070;2023-06-24T12:03:33;67.53;;;61.55;;
15198;SDS011;7700;48.654;9.070;2023-06-24T12:06:00;56.10;;;51.20;;
15198;SDS011;7700;48.654;9.070;2023-06-24T12:08:26;91.38;;;77.85;;
15198;SDS011;7700;48.654;9.070;2023-06-24T12:10:52;76.50;;;69.70;;
15198;SDS011;7700;48.654;9.070;2023-06-24T12:13:18;77.53;;;61.10;;
15198;SDS011;7700;48.654;9.070;2023-06-24T12:15:44;125.07;;;95.35;;
15198;SDS011;7700;48.654;9.070;2023-06-24T12:18:10;83.18;;;71.55;;
15198;SDS011;7700;48.654;9.070;2023-06-24T12:20:36;64.88;;;59.25;;
15198;SDS011;7700;48.654;9.070;2023-06-24T12:23:02;76.53;;;69.50;;
15198;SDS011;7700;48.654;9.070;2023-06-24T12:25:29;71.88;;;55.38;;
15198;SDS011;7700;48.654;9.070;2023-06-24T12:27:55;60.10;;;54.05;;
15198;SDS011;7700;48.654;9.070;2023-06-24T12:30:21;69.38;;;54.38;;
15198;SDS011;7700;48.654;9.070;2023-06-24T12:32:49;78.53;;;70.70;;
15198;SDS011;7700;48.654;9.070;2023-06-24T12:35:16;75.47;;;67.60;;
15198;SDS011;7700;48.654;9.070;2023-06-24T12:37:42;108.10;;;93.00;;
15198;SDS011;7700;48.654;9.070;2023-06-24T12:40:10;57.03;;;53.10;;
15198;SDS011;7700;48.654;9.070;2023-06-24T12:42:36;59.20;;;53.28;;
15198;SDS011;7700;48.654;9.070;2023-06-24T12:45:02;67.35;;;60.45;;
15198;SDS011;7700;48.654;9.070;2023-06-24T12:47:28;60.80;;;55.78;;
15198;SDS011;7700;48.654;9.070;2023-06-24T12:49:54;63.47;;;56.95;;
15198;SDS011;7700;48.654;9.070;2023-06-24T12:52:19;60.53;;;53.92;;
15198;SDS011;7700;48.654;9.070;2023-06-24T12:54:45;61.25;;;56.30;;
15198;SDS011;7700;48.654;9.070;2023-06-24T12:57:11;68.43;;;61.85;;
15198;SDS011;7700;48.654;9.070;2023-06-24T12:59:37;118.07;;;105.13;;
15198;SDS011;7700;48.654;9.070;2023-06-24T13:02:03;77.32;;;68.93;;
15198;SDS011;7700;48.654;9.070;2023-06-24T13:04:29;58.88;;;52.55;;
15198;SDS011;7700;48.654;9.070;2023-06-24T13:06:55;56.80;;;50.92;;
15198;SDS011;7700;48.654;9.070;2023-06-24T13:09:21;86.03;;;77.43;;
15198;SDS011;7700;48.654;9.070;2023-06-24T13:11:47;65.80;;;59.13;;
15198;SDS011;7700;48.654;9.070;2023-06-24T13:14:14;54.78;;;48.90;;
15198;SDS011;7700;48.654;9.070;2023-06-24T13:16:40;87.30;;;78.60;;
15198;SDS011;7700;48.654;9.070;2023-06-24T13:19:06;76.70;;;69.85;;
15198;SDS011;7700;48.654;9.070;2023-06-24T13:21:32;70.35;;;63.60;;
15198;SDS011;7700;48.654;9.070;2023-06-24T13:23:58;65.97;;;58.05;;
15198;SDS011;7700;48.654;9.070;2023-06-24T13:26:24;63.13;;;57.17;;
15198;SDS011;7700;48.654;9.070;2023-06-24T13:28:50;85.15;;;77.78;;
15198;SDS011;7700;48.654;9.070;2023-06-24T13:31:17;74.55;;;67.22;;
15198;SDS011;7700;48.654;9.070;2023-06-24T13:33:43;61.05;;;55.03;;
15198;SDS011;7700;48.654;9.070;2023-06-24T13:36:11;91.85;;;72.47;;
15198;SDS011;7700;48.654;9.070;2023-06-24T13:38:50;60.97;;;55.80;;
15198;SDS011;7700;48.654;9.070;2023-06-24T13:41:16;97.33;;;86.30;;
15198;SDS011;7700;48.654;9.070;2023-06-24T13:43:42;72.25;;;60.47;;
15198;SDS011;7700;48.654;9.070;2023-06-24T13:46:08;77.75;;;69.85;;
15198;SDS011;7700;48.654;9.070;2023-06-24T13:48:34;58.00;;;52.03;;
15198;SDS011;7700;48.654;9.070;2023-06-24T13:51:00;57.40;;;50.47;;
15198;SDS011;7700;48.654;9.070;2023-06-24T13:53:26;86.38;;;77.05;;
15198;SDS011;7700;48.654;9.070;2023-06-24T13:55:52;85.65;;;77.05;;
15198;SDS011;7700;48.654;9.070;2023-06-24T13:58:17;97.80;;;88.90;;
15198;SDS011;7700;48.654;9.070;2023-06-24T14:00:43;64.22;;;58.20;;
15198;SDS011;7700;48.654;9.070;2023-06-24T14:03:10;69.20;;;62.00;;
15198;SDS011;7700;48.654;9.070;2023-06-24T14:05:36;64.07;;;58.00;;
15198;SDS011;7700;48.654;9.070;2023-06-24T14:08:02;81.78;;;67.85;;
15198;SDS011;7700;48.654;9.070;2023-06-24T14:10:28;51.42;;;47.10;;
15198;SDS011;7700;48.654;9.070;2023-06-24T14:12:54;60.20;;;54.95;;
15198;SDS011;7700;48.654;9.070;2023-06-24T14:15:20;69.18;;;54.95;;
15198;SDS011;7700;48.654;9.070;2023-06-24T14:17:47;59.50;;;53.97;;
15198;SDS011;7700;48.654;9.070;2023-06-24T14:20:13;58.03;;;52.63;;
15198;SDS011;7700;48.654;9.070;2023-06-24T14:22:39;66.53;;;59.30;;
15198;SDS011;7700;48.654;9.070;2023-06-24T14:25:05;68.72;;;62.70;;
15198;SDS011;7700;48.654;9.070;2023-06-24T14:27:31;64.57;;;56.95;;
15198;SDS011;7700;48.654;9.070;2023-06-24T14:29:57;62.40;;;56.50;;
15198;SDS011;7700;48.654;9.070;2023-06-24T14:32:23;66.60;;;52.15;;
15198;SDS011;7700;48.654;9.070;2023-06-24T14:34:49;63.72;;;56.30;;
15198;SDS011;7700;48.654;9.070;2023-06-24T14:37:15;190.07;;;124.85;;
15198;SDS011;7700;48.654;9.070;2023-06-24T14:39:41;103.05;;;81.82;;
15198;SDS011;7700;48.654;9.070;2023-06-24T14:42:06;67.25;;;60.15;;
15198;SDS011;7700;48.654;9.070;2023-06-24T14:44:33;63.20;;;56.78;;
15198;SDS011;7700;48.654;9.070;2023-06-24T14:46:59;66.40;;;58.60;;
15198;SDS011;7700;48.654;9.070;2023-06-24T14:49:25;93.43;;;81.10;;
15198;SDS011;7700;48.654;9.070;2023-06-24T14:51:51;77.85;;;66.97;;
15198;SDS011;7700;48.654;9.070;2023-06-24T14:54:17;102.45;;;81.75;;
15198;SDS011;7700;48.654;9.070;2023-06-24T14:56:44;54.13;;;48.80;;
15198;SDS011;7700;48.654;9.070;2023-06-24T14:59:10;68.13;;;62.28;;
15198;SDS011;7700;48.654;9.070;2023-06-24T15:01:36;55.90;;;50.92;;
15198;SDS011;7700;48.654;9.070;2023-06-24T15:04:02;65.30;;;59.53;;
15198;SDS011;7700;48.654;9.070;2023-06-24T15:06:28;75.90;;;67.88;;
15198;SDS011;7700;48.654;9.070;2023-06-24T15:08:54;63.10;;;56.78;;
15198;SDS011;7700;48.654;9.070;2023-06-24T15:11:20;86.30;;;77.95;;
15198;SDS011;7700;48.654;9.070;2023-06-24T15:13:47;75.90;;;69.28;;